TimeCDT,TemperatureF,Dew PointF,Humidity,Sea Level PressureIn,VisibilityMPH,Wind Direction,Wind SpeedMPH,Gust SpeedMPH,PrecipitationIn,Events,Conditions,WindDirDegrees,DateUTC
12:15 AM,59.0,46.4,63,29.75,10.0,SSE,4.6,-,N/A,Rain,Light Rain,160,2013-04-08 05:15:00
12:35 AM,59.0,48.2,67,29.76,10.0,South,6.9,-,0.04,Rain,Rain,180,2013-04-08 05:35:00
12:55 AM,57.2,48.2,72,29.75,10.0,SSW,5.8,-,0.11,Rain,Rain,200,2013-04-08 05:55:00
1:15 AM,57.2,50.0,77,29.73,10.0,South,4.6,-,0.04,Rain,Rain,180,2013-04-08 06:15:00
1:35 AM,57.2,50.0,77,29.74,10.0,SSW,9.2,-,0.14,Rain,Heavy Rain,200,2013-04-08 06:35:00
1:55 AM,57.2,50.0,77,29.72,10.0,South,5.8,-,0.23,Rain,Heavy Rain,170,2013-04-08 06:55:00
2:15 AM,57.2,51.8,82,29.67,5.0,SE,10.4,-,0.08,Rain,Rain,130,2013-04-08 07:15:00
2:35 AM,57.2,51.8,82,29.65,4.0,ESE,5.8,-,0.27,Rain,Heavy Rain,110,2013-04-08 07:35:00
2:55 AM,57.2,50.0,77,29.62,5.0,ESE,13.8,-,0.41,Rain,Heavy Rain,110,2013-04-08 07:55:00
3:15 AM,57.2,50.0,77,29.57,7.0,ESE,12.7,-,0.13,Rain,Rain,110,2013-04-08 08:15:00
3:35 AM,60.8,51.8,72,29.60,10.0,South,11.5,18.4,0.14,,Overcast,170,2013-04-08 08:35:00
3:55 AM,60.8,53.6,77,29.59,10.0,South,16.1,23.0,0.14,,Overcast,190,2013-04-08 08:55:00
4:15 AM,60.8,51.8,72,29.60,10.0,SSW,21.9,31.1,N/A,,Scattered Clouds,210,2013-04-08 09:15:00
4:35 AM,57.2,50.0,77,29.60,10.0,SW,23.0,29.9,N/A,,Mostly Cloudy,220,2013-04-08 09:35:00
4:55 AM,57.2,50.0,77,29.61,10.0,SW,19.6,27.6,N/A,,Overcast,220,2013-04-08 09:55:00
5:15 AM,57.2,48.2,72,29.62,10.0,SW,17.3,25.3,N/A,,Scattered Clouds,220,2013-04-08 10:15:00
5:35 AM,57.2,48.2,72,29.63,10.0,SW,16.1,23.0,N/A,,Clear,230,2013-04-08 10:35:00
5:55 AM,57.2,48.2,72,29.65,10.0,WSW,11.5,18.4,N/A,,Mostly Cloudy,240,2013-04-08 10:55:00
6:15 AM,57.2,48.2,72,29.67,10.0,WSW,9.2,-,N/A,,Overcast,250,2013-04-08 11:15:00
6:35 AM,57.2,48.2,72,29.69,10.0,WSW,8.1,-,N/A,,Overcast,240,2013-04-08 11:35:00
6:55 AM,57.2,48.2,72,29.70,10.0,SW,4.6,-,N/A,,Overcast,230,2013-04-08 11:55:00
7:15 AM,57.2,48.2,72,29.72,10.0,WSW,3.5,-,N/A,,Overcast,250,2013-04-08 12:15:00
7:35 AM,57.2,50.0,77,29.74,10.0,WSW,3.5,-,N/A,,Overcast,250,2013-04-08 12:35:00
7:55 AM,57.2,50.0,77,29.75,10.0,WSW,9.2,-,N/A,,Overcast,250,2013-04-08 12:55:00
8:15 AM,59.0,50.0,72,29.76,10.0,WSW,9.2,-,N/A,,Mostly Cloudy,240,2013-04-08 13:15:00
8:35 AM,60.8,51.8,72,29.75,10.0,WSW,8.1,-,N/A,,Scattered Clouds,250,2013-04-08 13:35:00
8:55 AM,60.8,51.8,72,29.76,10.0,WSW,8.1,-,N/A,,Clear,250,2013-04-08 13:55:00
9:15 AM,60.8,51.8,72,29.76,10.0,West,5.8,-,N/A,,Mostly Cloudy,260,2013-04-08 14:15:00
9:35 AM,62.6,51.8,68,29.76,10.0,WSW,6.9,-,N/A,,Overcast,250,2013-04-08 14:35:00
9:55 AM,64.4,51.8,64,29.77,10.0,WSW,8.1,-,N/A,,Scattered Clouds,250,2013-04-08 14:55:00
10:15 AM,64.4,53.6,68,29.77,10.0,SW,8.1,-,N/A,,Clear,230,2013-04-08 15:15:00
10:35 AM,64.4,53.6,68,29.77,10.0,SW,8.1,-,N/A,,Clear,220,2013-04-08 15:35:00
10:55 AM,66.2,53.6,64,29.78,10.0,SW,9.2,-,N/A,,Clear,230,2013-04-08 15:55:00
11:15 AM,66.2,53.6,64,29.78,10.0,WSW,9.2,-,N/A,,Clear,240,2013-04-08 16:15:00
11:35 AM,66.2,53.6,64,29.78,10.0,WSW,4.6,-,N/A,,Clear,240,2013-04-08 16:35:00
11:55 AM,68.0,55.4,64,29.78,10.0,SW,5.8,-,N/A,,Clear,230,2013-04-08 16:55:00
12:15 PM,69.8,55.4,60,29.77,10.0,SW,6.9,-,N/A,,Scattered Clouds,220,2013-04-08 17:15:00
12:35 PM,69.8,55.4,60,29.78,10.0,SSW,8.1,-,N/A,,Mostly Cloudy,210,2013-04-08 17:35:00
12:55 PM,69.8,55.4,60,29.78,10.0,SW,8.1,-,N/A,,Mostly Cloudy,230,2013-04-08 17:55:00
1:15 PM,71.6,57.2,60,29.77,10.0,WSW,5.8,-,N/A,,Mostly Cloudy,240,2013-04-08 18:15:00
1:35 PM,69.8,55.4,60,29.77,10.0,SSW,5.8,-,N/A,,Overcast,210,2013-04-08 18:35:00
1:55 PM,71.6,57.2,60,29.76,10.0,South,5.8,-,N/A,,Overcast,190,2013-04-08 18:55:00
2:15 PM,71.6,57.2,60,29.77,10.0,SSW,8.1,-,N/A,,Mostly Cloudy,210,2013-04-08 19:15:00
2:35 PM,73.4,55.4,53,29.77,10.0,SW,4.6,-,N/A,,Mostly Cloudy,220,2013-04-08 19:35:00
2:55 PM,71.6,57.2,60,29.77,10.0,SSW,9.2,-,N/A,,Mostly Cloudy,210,2013-04-08 19:55:00
3:15 PM,73.4,57.2,57,29.77,10.0,SSW,6.9,-,N/A,,Mostly Cloudy,200,2013-04-08 20:15:00
3:35 PM,73.4,57.2,57,29.77,10.0,South,8.1,-,N/A,,Mostly Cloudy,170,2013-04-08 20:35:00
3:55 PM,71.6,57.2,60,29.77,10.0,SW,6.9,-,N/A,,Mostly Cloudy,230,2013-04-08 20:55:00
4:15 PM,73.4,57.2,57,29.77,10.0,SSW,5.8,-,N/A,,Scattered Clouds,210,2013-04-08 21:15:00
4:35 PM,71.6,57.2,60,29.77,10.0,South,6.9,-,N/A,,Scattered Clouds,170,2013-04-08 21:35:00
4:55 PM,71.6,57.2,60,29.78,10.0,South,4.6,-,N/A,,Mostly Cloudy,180,2013-04-08 21:55:00
5:15 PM,71.6,57.2,60,29.78,10.0,South,3.5,-,N/A,,Scattered Clouds,190,2013-04-08 22:15:00
5:35 PM,71.6,57.2,60,29.78,10.0,SSW,5.8,-,N/A,,Mostly Cloudy,200,2013-04-08 22:35:00
5:55 PM,73.4,57.2,57,29.79,10.0,SSW,3.5,-,N/A,,Mostly Cloudy,200,2013-04-08 22:55:00
6:15 PM,71.6,57.2,60,29.78,10.0,SSE,6.9,-,N/A,,Mostly Cloudy,150,2013-04-08 23:15:00
6:35 PM,71.6,57.2,60,29.77,10.0,ESE,6.9,-,N/A,,Clear,120,2013-04-08 23:35:00
6:55 PM,71.6,57.2,60,29.78,10.0,SE,4.6,-,N/A,,Clear,130,2013-04-08 23:55:00
7:15 PM,69.8,57.2,64,29.80,10.0,Calm,Calm,-,N/A,,Clear,0,2013-04-09 00:15:00
7:35 PM,69.8,57.2,64,29.80,10.0,East,3.5,-,N/A,,Clear,80,2013-04-09 00:35:00
7:55 PM,68.0,55.4,64,29.80,10.0,East,5.8,-,N/A,,Clear,80,2013-04-09 00:55:00
8:15 PM,66.2,55.4,68,29.80,10.0,SE,5.8,-,N/A,,Clear,130,2013-04-09 01:15:00
8:35 PM,66.2,55.4,68,29.81,10.0,ESE,5.8,-,N/A,,Clear,120,2013-04-09 01:35:00
8:55 PM,66.2,55.4,68,29.82,10.0,East,6.9,-,N/A,,Scattered Clouds,90,2013-04-09 01:55:00
9:15 PM,66.2,55.4,68,29.82,10.0,East,8.1,-,N/A,,Scattered Clouds,100,2013-04-09 02:15:00
9:35 PM,64.4,55.4,73,29.82,10.0,East,6.9,-,N/A,,Scattered Clouds,80,2013-04-09 02:35:00
9:55 PM,64.4,55.4,73,29.82,10.0,East,9.2,-,N/A,,Clear,100,2013-04-09 02:55:00
10:15 PM,66.2,55.4,68,29.82,10.0,East,5.8,-,N/A,,Scattered Clouds,80,2013-04-09 03:15:00
10:35 PM,66.2,55.4,68,29.82,10.0,East,9.2,-,N/A,,Scattered Clouds,90,2013-04-09 03:35:00
10:55 PM,64.4,53.6,68,29.83,10.0,East,6.9,-,N/A,,Clear,80,2013-04-09 03:55:00
11:15 PM,64.4,53.6,68,29.83,10.0,East,5.8,-,N/A,,Scattered Clouds,90,2013-04-09 04:15:00
11:35 PM,64.4,55.4,73,29.82,10.0,East,9.2,-,N/A,,Mostly Cloudy,100,2013-04-09 04:35:00
11:55 PM,64.4,55.4,73,29.82,10.0,East,8.1,-,N/A,,Mostly Cloudy,90,2013-04-09 04:55:00